Time;durP1;ratioP1;P1;durP2;ratioP2;P2;SDS_P1;SDS_P2;PMS_P1;PMS_P2;Temp;Humidity;BMP_temperature;BMP_pressure;BME280_temperature;BME280_humidity;BME280_pressure;Samples;Min_cycle;Max_cycle;Signal;HPM_P1;HPM_P2
2023/03/10 00:02:03;;;;;;;26.27;12.63;;;0.10;99.90;;;;;;4972187;28;20045;-86
2023/03/10 00:04:28;;;;;;;25.33;11.70;;;0.10;99.90;;;;;;4971329;28;20034;-86
2023/03/10 00:06:54;;;;;;;27.77;12.40;;;1.10;99.90;;;;;;4974993;28;20073;-85
2023/03/10 00:09:20;;;;;;;23.20;10.43;;;1.00;99.90;;;;;;4957710;28;20122;-85
2023/03/10 00:11:46;;;;;;;25.27;11.73;;;0.10;99.90;;;;;;4973423;28;20062;-86
2023/03/10 00:14:12;;;;;;;24.98;11.43;;;0.10;99.90;;;;;;4973820;28;20043;-85
2023/03/10 00:16:38;;;;;;;26.73;12.05;;;0.10;99.90;;;;;;4972584;28;20038;-85
2023/03/10 00:19:03;;;;;;;21.63;10.88;;;0.70;99.90;;;;;;4976109;28;20045;-85
2023/03/10 00:21:30;;;;;;;23.20;11.45;;;0.10;99.90;;;;;;4972470;28;20491;-85
2023/03/10 00:23:57;;;;;;;21.60;11.55;;;0.10;99.90;;;;;;4973196;28;20066;-85
2023/03/10 00:26:26;;;;;;;23.23;10.45;;;0.10;99.90;;;;;;4988548;28;20038;-86
2023/03/10 00:28:52;;;;;;;23.80;11.88;;;0.10;99.90;;;;;;4993102;28;20906;-86
2023/03/10 00:31:21;;;;;;;24.85;11.43;;;0.10;99.90;;;;;;4983831;28;20116;-85
2023/03/10 00:33:48;;;;;;;25.13;11.15;;;0.10;99.90;;;;;;4989028;28;20105;-86
2023/03/10 00:36:16;;;;;;;23.92;11.20;;;0.10;99.90;;;;;;4978122;28;20074;-86
2023/03/10 00:38:43;;;;;;;24.95;11.73;;;0.10;99.90;;;;;;4985200;28;20044;-86
2023/03/10 00:41:12;;;;;;;22.40;11.20;;;0.10;99.90;;;;;;4973787;28;20495;-85
2023/03/10 00:43:37;;;;;;;19.98;10.23;;;0.30;99.90;;;;;;4974111;28;20066;-86
2023/03/10 00:46:04;;;;;;;23.00;11.23;;;0.10;99.90;;;;;;4958106;28;20088;-86
2023/03/10 00:48:30;;;;;;;22.13;10.23;;;0.10;99.90;;;;;;5004866;28;20559;-86
2023/03/10 00:50:56;;;;;;;21.13;10.68;;;0.10;99.90;;;;;;4976181;28;20117;-86
2023/03/10 00:53:22;;;;;;;23.50;11.00;;;0.10;99.90;;;;;;4988246;28;20041;-86
2023/03/10 00:55:57;;;;;;;21.58;11.32;;;0.10;99.90;;;;;;4987490;28;20403;-86
2023/03/10 00:58:23;;;;;;;22.67;11.95;;;0.10;99.90;;;;;;5002502;28;20061;-86
2023/03/10 01:00:48;;;;;;;25.30;11.90;;;0.10;99.90;;;;;;4973928;28;20077;-86
2023/03/10 01:03:14;;;;;;;23.95;11.05;;;0.80;99.90;;;;;;4954753;28;20034;-86
2023/03/10 01:05:40;;;;;;;25.17;11.95;;;0.10;99.90;;;;;;4969935;28;20578;-87
2023/03/10 01:08:05;;;;;;;22.33;11.40;;;0.10;99.90;;;;;;4970379;28;20427;-87
2023/03/10 01:10:31;;;;;;;23.40;11.93;;;1.00;99.90;;;;;;4993330;28;20073;-88
2023/03/10 01:12:56;;;;;;;24.88;11.95;;;0.10;99.90;;;;;;4958082;28;20050;-87
2023/03/10 01:15:22;;;;;;;22.35;11.95;;;0.10;99.90;;;;;;4975958;28;20038;-87
2023/03/10 01:17:48;;;;;;;24.17;11.80;;;0.10;99.90;;;;;;4988008;28;20046;-87
2023/03/10 01:20:15;;;;;;;26.10;12.80;;;0.60;99.90;;;;;;4959779;28;20226;-87
2023/03/10 01:22:41;;;;;;;24.52;12.18;;;0.10;99.90;;;;;;4972015;28;20049;-87
2023/03/10 01:25:12;;;;;;;25.58;11.68;;;1.20;99.90;;;;;;4989244;28;20088;-87
2023/03/10 01:27:38;;;;;;;24.95;12.52;;;0.70;99.90;;;;;;4988641;28;20034;-87
2023/03/10 01:30:04;;;;;;;27.55;13.05;;;0.10;99.90;;;;;;4976369;28;20412;-87
2023/03/10 01:32:30;;;;;;;28.20;11.90;;;0.10;99.90;;;;;;4973395;28;20459;-87
2023/03/10 01:34:55;;;;;;;27.13;13.98;;;0.20;99.90;;;;;;4940852;28;20122;-87
2023/03/10 01:37:21;;;;;;;27.75;12.68;;;0.70;99.90;;;;;;4968768;28;20040;-87
2023/03/10 01:39:47;;;;;;;27.75;12.32;;;0.10;99.90;;;;;;4962316;28;20069;-88
2023/03/10 01:42:12;;;;;;;26.05;12.18;;;0.10;99.90;;;;;;4977418;28;20041;-87
2023/03/10 01:44:38;;;;;;;29.70;12.48;;;0.10;99.90;;;;;;4979163;28;20526;-87
2023/03/10 01:47:04;;;;;;;27.20;12.48;;;0.10;99.90;;;;;;4996062;28;20426;-87
2023/03/10 01:49:36;;;;;;;24.83;12.90;;;0.10;99.90;;;;;;4949771;28;20478;-88
2023/03/10 01:52:13;;;;;;;26.85;12.32;;;0.20;99.90;;;;;;4996447;28;20070;-88
2023/03/10 01:55:05;;;;;;;22.15;12.07;;;0.10;99.90;;;;;;4975371;28;20125;-88
2023/03/10 01:57:35;;;;;;;27.55;14.48;;;0.10;99.90;;;;;;4981973;28;20395;-88
2023/03/10 02:00:04;;;;;;;24.77;12.60;;;0.20;99.90;;;;;;4979177;28;20034;-88
2023/03/10 02:02:34;;;;;;;25.88;13.20;;;0.10;99.90;;;;;;4996559;28;20116;-88
2023/03/10 02:05:01;;;;;;;24.85;12.10;;;0.20;99.90;;;;;;4976951;28;20069;-88
2023/03/10 02:07:29;;;;;;;24.15;11.75;;;0.50;99.90;;;;;;4977842;28;20042;-88
2023/03/10 02:09:55;;;;;;;26.80;12.50;;;0.10;99.90;;;;;;4997516;28;20041;-88
2023/03/10 02:12:21;;;;;;;24.65;12.00;;;0.10;99.90;;;;;;4997034;28;20041;-88
2023/03/10 02:14:48;;;;;;;26.25;12.45;;;0.10;99.90;;;;;;4997231;28;20039;-89
2023/03/10 02:17:17;;;;;;;23.95;11.15;;;0.20;99.90;;;;;;4996817;28;20092;-89
2023/03/10 02:20:12;;;;;;;23.15;11.25;;;0.10;99.90;;;;;;4993313;28;20492;-89
2023/03/10 02:22:38;;;;;;;26.08;11.90;;;0.10;99.90;;;;;;4946346;28;20140;-89
2023/03/10 02:25:19;;;;;;;25.55;11.38;;;0.10;99.90;;;;;;4995649;28;20040;-90
2023/03/10 02:27:46;;;;;;;23.40;10.68;;;0.10;99.90;;;;;;4979672;28;20037;-91
2023/03/10 02:30:35;;;;;;;21.83;11.48;;;1.10;99.90;;;;;;4980005;28;20488;-89
2023/03/10 02:33:10;;;;;;;23.17;10.65;;;0.10;99.90;;;;;;4996013;28;20503;-89
2023/03/10 02:35:36;;;;;;;23.42;10.48;;;0.10;99.90;;;;;;5001936;28;20077;-90
2023/03/10 02:38:02;;;;;;;23.38;10.70;;;1.30;99.90;;;;;;4948607;28;20065;-89
2023/03/10 02:40:39;;;;;;;21.15;10.68;;;0.10;99.90;;;;;;4980894;28;20526;-89
2023/03/10 02:43:11;;;;;;;23.77;10.18;;;0.80;99.90;;;;;;4978795;28;20491;-89
2023/03/10 02:45:39;;;;;;;22.60;10.55;;;0.10;99.90;;;;;;4995073;28;20510;-90
2023/03/10 02:48:10;;;;;;;25.98;11.65;;;0.10;99.90;;;;;;4998182;28;20051;-90
2023/03/10 02:50:39;;;;;;;20.67;10.73;;;0.10;99.90;;;;;;4979124;28;20038;-90
2023/03/10 02:53:17;;;;;;;21.20;10.70;;;0.10;99.90;;;;;;5003082;28;20042;-90
2023/03/10 02:55:43;;;;;;;21.15;11.07;;;0.10;99.90;;;;;;4994878;28;20104;-89
2023/03/10 02:58:09;;;;;;;21.55;10.32;;;0.90;99.90;;;;;;4976832;28;20223;-90
2023/03/10 03:00:42;;;;;;;20.02;10.10;;;0.90;99.90;;;;;;4961800;28;20690;-90
2023/03/10 03:03:09;;;;;;;23.30;10.73;;;0.80;99.90;;;;;;4996052;28;20033;-90
2023/03/10 03:05:36;;;;;;;21.52;10.23;;;1.10;99.90;;;;;;4992425;28;20305;-90
2023/03/10 03:08:03;;;;;;;18.92;10.15;;;0.10;99.90;;;;;;4970687;28;20450;-90
2023/03/10 03:10:29;;;;;;;19.48;10.40;;;0.10;99.90;;;;;;4996334;28;20538;-90
2023/03/10 03:12:55;;;;;;;20.63;10.25;;;0.50;99.90;;;;;;4976569;28;20145;-90
2023/03/10 03:15:22;;;;;;;22.50;12.07;;;0.10;99.90;;;;;;4960366;28;20081;-89
2023/03/10 03:17:47;;;;;;;21.95;10.73;;;0.40;99.90;;;;;;4972927;28;20045;-90
2023/03/10 03:20:14;;;;;;;23.95;12.00;;;0.50;99.90;;;;;;4989801;28;20033;-90
2023/03/10 03:22:44;;;;;;;22.40;11.35;;;0.10;99.90;;;;;;4978200;28;20113;-89
2023/03/10 03:25:12;;;;;;;28.27;12.43;;;0.10;99.90;;;;;;4995402;28;20046;-89
2023/03/10 03:27:39;;;;;;;27.65;13.13;;;1.00;99.90;;;;;;4989777;28;20044;-90
2023/03/10 03:30:07;;;;;;;30.52;13.25;;;0.10;99.90;;;;;;4977214;28;20039;-89
2023/03/10 03:32:34;;;;;;;32.75;14.95;;;0.10;99.90;;;;;;4979711;28;20381;-89
2023/03/10 03:34:59;;;;;;;32.42;13.95;;;0.10;99.90;;;;;;4993798;28;21896;-89
2023/03/10 03:37:25;;;;;;;32.63;15.20;;;0.50;99.90;;;;;;4975757;28;20069;-89
2023/03/10 03:39:51;;;;;;;28.27;14.00;;;0.90;99.90;;;;;;4972109;28;20045;-89
2023/03/10 03:42:17;;;;;;;35.05;15.60;;;0.10;99.90;;;;;;4958227;28;20531;-90
2023/03/10 03:44:42;;;;;;;32.55;15.43;;;0.10;99.90;;;;;;4975996;28;20049;-90
2023/03/10 03:47:09;;;;;;;32.75;15.95;;;0.10;99.90;;;;;;4990644;28;20053;-89
2023/03/10 03:49:36;;;;;;;37.13;15.88;;;0.90;99.90;;;;;;4989252;28;20553;-89
2023/03/10 03:52:03;;;;;;;34.63;16.17;;;0.10;99.90;;;;;;4986808;28;20046;-89
2023/03/10 03:54:29;;;;;;;33.58;14.45;;;0.10;99.90;;;;;;4972249;28;20042;-89
2023/03/10 03:56:54;;;;;;;32.20;15.35;;;0.10;99.90;;;;;;4977131;28;20046;-88
2023/03/10 03:59:20;;;;;;;32.72;15.77;;;1.00;99.90;;;;;;4941980;28;20039;-88
2023/03/10 04:01:46;;;;;;;33.20;15.77;;;0.10;99.90;;;;;;4990290;28;20062;-88
2023/03/10 04:04:11;;;;;;;33.60;14.80;;;0.10;99.90;;;;;;4989971;28;20035;-89
2023/03/10 04:06:37;;;;;;;29.10;14.65;;;0.10;99.90;;;;;;4970753;28;20042;-88
2023/03/10 04:09:03;;;;;;;29.77;14.15;;;0.10;99.90;;;;;;4951014;28;20496;-88
2023/03/10 04:11:29;;;;;;;30.67;14.02;;;0.10;99.90;;;;;;4961012;28;20037;-88
2023/03/10 04:13:55;;;;;;;26.98;13.60;;;0.10;99.90;;;;;;4975882;28;20411;-89
2023/03/10 04:16:20;;;;;;;30.50;14.35;;;0.10;99.90;;;;;;4945469;28;20043;-88
2023/03/10 04:18:46;;;;;;;29.20;13.50;;;1.10;99.90;;;;;;4956244;28;20125;-89
2023/03/10 04:21:12;;;;;;;28.70;12.77;;;0.10;99.90;;;;;;4956932;28;20042;-88
2023/03/10 04:23:40;;;;;;;28.67;12.80;;;0.10;99.90;;;;;;4974643;28;20439;-89
2023/03/10 04:26:10;;;;;;;23.10;12.05;;;0.60;99.90;;;;;;4973770;28;20491;-89
2023/03/10 04:28:36;;;;;;;27.85;12.15;;;0.10;99.90;;;;;;4987072;28;20492;-89
2023/03/10 04:31:03;;;;;;;27.52;12.43;;;0.80;99.90;;;;;;4991835;28;20046;-89
2023/03/10 04:33:29;;;;;;;24.50;12.18;;;0.10;99.90;;;;;;4972278;28;20034;-89
2023/03/10 04:35:55;;;;;;;27.30;12.13;;;0.10;99.90;;;;;;4974591;28;20152;-89
2023/03/10 04:38:24;;;;;;;22.58;11.27;;;0.10;99.90;;;;;;4968668;28;20046;-90
2023/03/10 04:40:54;;;;;;;23.63;11.70;;;0.60;99.90;;;;;;4992053;28;20043;-91
2023/03/10 04:43:20;;;;;;;25.13;11.77;;;0.10;99.90;;;;;;4961685;28;20049;-91
2023/03/10 04:45:47;;;;;;;22.33;10.80;;;0.90;99.90;;;;;;4962129;28;20492;-91
2023/03/10 04:48:13;;;;;;;21.65;10.52;;;0.10;99.90;;;;;;4991789;28;20238;-93
2023/03/10 04:50:39;;;;;;;20.02;9.38;;;0.90;99.90;;;;;;4960419;28;20041;-94
2023/03/10 04:53:04;;;;;;;23.73;10.90;;;0.10;99.90;;;;;;4977882;28;20065;-94
2023/03/10 04:55:30;;;;;;;19.50;9.80;;;0.50;99.90;;;;;;4958263;28;20502;-94
2023/03/10 04:57:56;;;;;;;19.05;9.80;;;0.10;99.90;;;;;;4991175;28;20038;-94
2023/03/10 05:00:22;;;;;;;22.15;9.40;;;0.00;99.90;;;;;;4977752;28;20046;-94
2023/03/10 05:02:47;;;;;;;17.08;8.73;;;0.00;99.90;;;;;;4973281;28;20045;-94
2023/03/10 05:05:13;;;;;;;19.75;10.05;;;0.00;99.90;;;;;;4958706;28;20046;-93
2023/03/10 05:07:39;;;;;;;18.88;9.93;;;0.00;99.90;;;;;;4960219;28;20037;-95
2023/03/10 05:10:06;;;;;;;21.92;9.48;;;0.70;99.90;;;;;;4960086;28;20034;-96
2023/03/10 05:12:31;;;;;;;19.73;9.90;;;0.10;99.90;;;;;;4972550;28;20038;-95
2023/03/10 05:14:57;;;;;;;19.80;9.95;;;1.00;99.90;;;;;;4974118;28;20039;-94
2023/03/10 05:17:23;;;;;;;17.73;8.85;;;0.90;99.90;;;;;;4940368;28;20791;-95
2023/03/10 05:19:49;;;;;;;19.50;9.98;;;0.00;99.90;;;;;;4961862;28;20042;-94
2023/03/10 05:22:14;;;;;;;23.13;11.07;;;0.00;99.90;;;;;;4989689;28;20034;-92
2023/03/10 05:24:41;;;;;;;19.58;10.20;;;0.70;99.90;;;;;;4940291;28;20042;-93
2023/03/10 05:27:07;;;;;;;21.13;9.98;;;0.00;99.90;;;;;;4972017;28;20137;-92
2023/03/10 05:29:33;;;;;;;24.90;10.55;;;1.10;99.90;;;;;;4975402;28;20077;-93
2023/03/10 05:31:59;;;;;;;21.63;10.00;;;0.90;99.90;;;;;;4972661;28;20073;-93
2023/03/10 05:34:25;;;;;;;21.95;10.10;;;0.00;99.90;;;;;;4988546;28;20331;-91
2023/03/10 05:36:51;;;;;;;22.83;10.63;;;0.00;99.90;;;;;;4954312;28;20077;-92
2023/03/10 05:39:17;;;;;;;21.42;10.30;;;0.40;99.90;;;;;;4998335;28;20088;-93
2023/03/10 05:41:43;;;;;;;23.65;10.48;;;0.00;99.90;;;;;;4962486;28;20042;-86
2023/03/10 05:44:09;;;;;;;20.33;8.93;;;0.00;99.90;;;;;;4970724;28;20058;-86
2023/03/10 05:46:34;;;;;;;21.85;10.23;;;0.40;99.90;;;;;;4975834;28;20046;-87
2023/03/10 05:49:00;;;;;;;19.88;9.50;;;0.00;99.90;;;;;;4972784;28;20042;-87
2023/03/10 05:51:26;;;;;;;19.77;9.63;;;0.00;99.90;;;;;;4947124;28;20046;-87
2023/03/10 05:53:51;;;;;;;28.23;10.80;;;1.00;99.90;;;;;;4971613;28;20200;-87
2023/03/10 05:56:19;;;;;;;20.55;9.55;;;0.10;99.90;;;;;;4977488;28;20046;-87
2023/03/10 05:58:46;;;;;;;19.55;9.35;;;0.00;99.90;;;;;;4975983;28;20073;-87
2023/03/10 06:01:12;;;;;;;19.52;9.98;;;0.00;99.90;;;;;;4988879;28;20107;-87
2023/03/10 06:03:37;;;;;;;22.17;9.45;;;0.70;99.90;;;;;;4975675;28;20041;-86
2023/03/10 06:06:05;;;;;;;20.55;9.57;;;0.10;99.90;;;;;;4975603;28;20042;-87
2023/03/10 06:08:32;;;;;;;21.92;9.63;;;0.10;99.90;;;;;;4971659;28;20038;-87
2023/03/10 06:10:58;;;;;;;22.88;9.35;;;0.10;99.90;;;;;;4975670;28;20049;-86
2023/03/10 06:13:25;;;;;;;19.90;8.60;;;0.00;99.90;;;;;;4966970;28;20037;-87
2023/03/10 06:15:53;;;;;;;19.08;8.18;;;0.00;99.90;;;;;;4997355;28;20054;-87
2023/03/10 06:18:19;;;;;;;19.15;9.02;;;0.00;99.90;;;;;;4970346;28;20125;-87
2023/03/10 06:20:46;;;;;;;24.38;10.15;;;0.40;99.90;;;;;;4991990;28;20402;-87
2023/03/10 06:23:13;;;;;;;25.15;10.45;;;0.10;99.90;;;;;;4990267;28;20045;-87
2023/03/10 06:25:39;;;;;;;27.25;10.25;;;0.00;99.90;;;;;;4990819;28;20507;-87
2023/03/10 06:28:05;;;;;;;23.27;10.95;;;0.10;99.90;;;;;;4965739;28;20045;-87
2023/03/10 06:30:32;;;;;;;23.75;11.05;;;0.20;99.90;;;;;;4975506;28;20039;-87
2023/03/10 06:32:59;;;;;;;21.05;9.80;;;0.10;99.90;;;;;;4993379;28;20611;-87
2023/03/10 06:35:25;;;;;;;24.00;10.05;;;1.00;99.90;;;;;;4992475;28;20104;-87
2023/03/10 06:37:51;;;;;;;22.27;10.65;;;0.90;99.90;;;;;;4995146;28;20045;-87
2023/03/10 06:40:17;;;;;;;24.48;10.98;;;0.80;99.90;;;;;;4959851;28;20034;-87
2023/03/10 06:42:43;;;;;;;25.50;10.90;;;0.10;99.90;;;;;;4994093;28;20108;-87
2023/03/10 06:45:13;;;;;;;21.95;10.07;;;0.10;99.90;;;;;;4995887;28;20452;-87
2023/03/10 06:47:40;;;;;;;22.55;10.73;;;0.10;99.90;;;;;;4992722;28;20046;-87
2023/03/10 06:50:06;;;;;;;25.05;10.43;;;0.10;99.90;;;;;;5009931;28;20048;-87
2023/03/10 06:52:35;;;;;;;29.52;11.82;;;0.10;99.90;;;;;;4993088;28;20066;-87
2023/03/10 06:55:01;;;;;;;29.20;12.25;;;0.30;99.90;;;;;;4961451;28;20037;-87
2023/03/10 06:57:27;;;;;;;27.70;12.10;;;0.20;99.90;;;;;;4977774;28;20038;-87
2023/03/10 06:59:53;;;;;;;26.77;12.02;;;0.10;99.90;;;;;;4992146;28;20129;-87
2023/03/10 07:02:19;;;;;;;30.98;11.32;;;0.10;99.90;;;;;;4996928;28;20173;-86
2023/03/10 07:04:45;;;;;;;27.52;11.52;;;0.90;99.90;;;;;;4993864;28;20113;-86
2023/03/10 07:07:12;;;;;;;25.45;12.45;;;0.20;99.90;;;;;;4974481;28;20046;-87
2023/03/10 07:09:38;;;;;;;30.80;13.45;;;0.20;99.90;;;;;;5007543;28;20042;-87
2023/03/10 07:12:04;;;;;;;29.95;13.55;;;0.20;99.90;;;;;;4996316;28;20790;-86
2023/03/10 07:14:30;;;;;;;33.22;13.15;;;0.20;99.90;;;;;;5009815;28;20557;-86
2023/03/10 07:16:57;;;;;;;27.45;11.85;;;0.20;99.90;;;;;;4997359;28;20035;-86
2023/03/10 07:19:23;;;;;;;28.45;13.63;;;0.20;99.90;;;;;;5022967;28;20093;-86
2023/03/10 07:21:49;;;;;;;31.88;14.88;;;0.30;99.90;;;;;;5013723;28;20057;-86
2023/03/10 07:24:16;;;;;;;30.58;13.50;;;1.00;99.90;;;;;;5015396;28;20038;-86
2023/03/10 07:26:41;;;;;;;33.85;14.07;;;0.40;99.90;;;;;;4998788;28;20038;-86
2023/03/10 07:29:07;;;;;;;29.65;13.70;;;0.30;99.90;;;;;;4988112;28;20145;-86
2023/03/10 07:31:33;;;;;;;29.40;13.45;;;0.30;99.90;;;;;;5026635;28;20050;-86
2023/03/10 07:34:00;;;;;;;25.17;13.48;;;0.30;99.90;;;;;;4997887;28;20034;-86
2023/03/10 07:36:28;;;;;;;31.27;12.90;;;0.30;99.90;;;;;;5014825;28;20109;-86
2023/03/10 07:38:54;;;;;;;27.13;13.43;;;1.30;99.90;;;;;;5008514;28;20108;-86
2023/03/10 07:41:20;;;;;;;30.88;14.15;;;0.50;99.90;;;;;;5000057;28;20057;-86
2023/03/10 07:43:49;;;;;;;28.17;12.60;;;0.40;99.90;;;;;;5000319;28;20065;-86
2023/03/10 07:46:15;;;;;;;25.60;12.10;;;0.40;99.90;;;;;;5017245;28;20176;-86
2023/03/10 07:48:41;;;;;;;29.85;13.60;;;0.40;99.90;;;;;;5000710;28;20019;-86
2023/03/10 07:51:07;;;;;;;26.35;12.65;;;0.60;99.90;;;;;;4995131;28;20046;-87
2023/03/10 07:53:33;;;;;;;27.58;12.82;;;0.40;99.90;;;;;;4975317;28;20045;-86
2023/03/10 07:56:02;;;;;;;25.67;12.48;;;0.40;99.90;;;;;;5010023;28;20085;-86
2023/03/10 07:58:28;;;;;;;26.48;12.45;;;0.40;99.90;;;;;;5011261;28;20130;-86
2023/03/10 08:00:55;;;;;;;25.75;12.52;;;0.40;99.90;;;;;;4993369;28;20051;-86
2023/03/10 08:03:22;;;;;;;26.20;12.32;;;0.40;99.90;;;;;;5017060;28;20121;-86
2023/03/10 08:05:48;;;;;;;22.42;11.43;;;0.40;99.90;;;;;;4996234;28;20062;-86
2023/03/10 08:08:14;;;;;;;25.25;12.27;;;0.50;99.90;;;;;;4999408;28;20037;-86
2023/03/10 08:10:39;;;;;;;23.85;12.25;;;0.50;99.90;;;;;;5002122;28;20413;-86
2023/03/10 08:13:05;;;;;;;23.38;11.35;;;0.70;99.90;;;;;;4977848;28;20046;-86
2023/03/10 08:15:31;;;;;;;21.40;11.32;;;0.60;99.90;;;;;;4972407;28;20035;-86
2023/03/10 08:17:57;;;;;;;22.17;11.45;;;0.60;99.90;;;;;;4961780;28;20128;-85
2023/03/10 08:20:23;;;;;;;24.38;10.80;;;0.70;99.90;;;;;;4988449;28;20173;-86
2023/03/10 08:22:48;;;;;;;23.80;11.88;;;0.70;99.90;;;;;;4938607;28;20050;-86
2023/03/10 08:25:14;;;;;;;23.35;11.82;;;0.70;99.90;;;;;;4975226;28;20407;-86
2023/03/10 08:27:40;;;;;;;23.60;13.02;;;0.70;99.90;;;;;;4973113;28;20034;-85
2023/03/10 08:30:06;;;;;;;21.48;11.43;;;0.70;99.90;;;;;;4977976;28;20180;-86
2023/03/10 08:32:32;;;;;;;21.20;12.27;;;0.70;99.90;;;;;;4999165;28;20084;-87
2023/03/10 08:34:58;;;;;;;22.25;11.50;;;0.70;99.90;;;;;;4987384;28;20054;-88
2023/03/10 08:37:23;;;;;;;22.63;11.73;;;0.70;99.90;;;;;;4991019;28;20042;-86
2023/03/10 08:39:52;;;;;;;24.13;12.27;;;0.70;99.90;;;;;;5007986;28;20490;-84
2023/03/10 08:42:18;;;;;;;20.27;10.93;;;0.70;99.90;;;;;;4976017;28;20211;-84
2023/03/10 08:44:44;;;;;;;21.63;10.82;;;0.70;99.90;;;;;;4962277;28;20562;-84
2023/03/10 08:47:09;;;;;;;22.67;11.50;;;0.70;99.90;;;;;;4984000;28;20038;-85
2023/03/10 08:49:35;;;;;;;28.58;12.82;;;0.80;99.90;;;;;;4990205;28;20045;-85
2023/03/10 08:52:01;;;;;;;22.08;11.05;;;0.70;99.90;;;;;;4959628;28;20069;-86
2023/03/10 08:54:27;;;;;;;24.20;11.93;;;0.80;99.90;;;;;;4957448;28;20046;-85
2023/03/10 08:56:53;;;;;;;24.10;12.38;;;0.80;99.90;;;;;;4973047;28;20048;-84
2023/03/10 08:59:19;;;;;;;22.27;12.25;;;0.70;99.90;;;;;;4956315;28;20034;-88
2023/03/10 09:01:45;;;;;;;22.23;11.77;;;0.80;99.90;;;;;;4959537;28;20122;-89
2023/03/10 09:04:11;;;;;;;21.67;12.48;;;0.80;99.90;;;;;;4971568;28;20044;-82
2023/03/10 09:06:37;;;;;;;20.23;11.20;;;0.80;99.90;;;;;;4941111;28;20462;-83
2023/03/10 09:09:05;;;;;;;19.20;11.25;;;0.80;99.90;;;;;;4971990;28;20039;-82
2023/03/10 09:11:32;;;;;;;24.45;12.27;;;0.80;99.90;;;;;;4956487;28;20042;-83
2023/03/10 09:13:59;;;;;;;20.55;11.63;;;0.90;99.90;;;;;;4971679;28;20112;-84
2023/03/10 09:16:25;;;;;;;23.88;12.07;;;0.90;99.90;;;;;;4971416;28;20057;-83
2023/03/10 09:18:50;;;;;;;19.25;10.77;;;0.90;99.90;;;;;;4955424;28;20038;-84
2023/03/10 09:21:18;;;;;;;24.15;11.75;;;0.90;99.90;;;;;;4940504;28;20050;-83
2023/03/10 09:23:46;;;;;;;23.05;12.25;;;0.90;99.90;;;;;;4953757;28;20100;-84
2023/03/10 09:26:12;;;;;;;19.88;12.02;;;0.90;99.90;;;;;;4972374;28;20514;-84
2023/03/10 09:28:38;;;;;;;25.23;13.40;;;0.90;99.90;;;;;;4955275;28;20046;-83
2023/03/10 09:31:05;;;;;;;23.02;11.02;;;1.00;99.90;;;;;;4970242;28;20046;-84
2023/03/10 09:33:32;;;;;;;23.60;12.00;;;1.00;99.90;;;;;;4954539;28;20057;-83
2023/03/10 09:35:58;;;;;;;23.17;11.73;;;0.90;99.90;;;;;;4954647;28;20435;-84
2023/03/10 09:38:24;;;;;;;22.52;11.68;;;0.90;99.90;;;;;;4971733;28;20041;-82
2023/03/10 09:40:55;;;;;;;21.00;12.13;;;0.90;99.90;;;;;;4985794;28;20053;-82
2023/03/10 09:43:22;;;;;;;21.67;11.45;;;0.90;99.90;;;;;;4969522;28;20061;-82
2023/03/10 09:45:59;;;;;;;19.60;11.00;;;0.90;99.90;;;;;;4972233;28;20088;-83
2023/03/10 09:48:52;;;;;;;22.80;12.15;;;1.00;99.90;;;;;;4956500;28;20050;-86
2023/03/10 09:51:23;;;;;;;21.90;11.93;;;0.90;99.90;;;;;;4956548;28;20411;-82
2023/03/10 09:54:18;;;;;;;24.25;12.52;;;1.00;99.90;;;;;;4956132;28;20046;-83
2023/03/10 09:56:43;;;;;;;20.90;11.27;;;0.90;99.90;;;;;;4956460;28;20042;-83
2023/03/10 09:59:30;;;;;;;20.92;11.57;;;0.90;99.90;;;;;;4971416;28;20050;-84
2023/03/10 10:01:56;;;;;;;22.77;12.52;;;1.00;99.90;;;;;;4974071;28;20069;-84
2023/03/10 10:04:30;;;;;;;23.00;12.20;;;1.00;99.90;;;;;;4961819;28;20034;-87
2023/03/10 10:06:57;;;;;;;20.83;11.60;;;1.00;99.90;;;;;;4975747;28;20046;-86
2023/03/10 10:09:26;;;;;;;19.58;10.93;;;1.00;99.90;;;;;;4958664;28;20113;-83
2023/03/10 10:11:52;;;;;;;21.35;12.23;;;1.40;99.90;;;;;;4976469;28;20048;-86
2023/03/10 10:14:23;;;;;;;24.17;12.02;;;0.90;99.90;;;;;;4959190;28;20042;-81
2023/03/10 10:17:01;;;;;;;22.42;11.73;;;0.90;99.90;;;;;;4973051;28;20589;-83
2023/03/10 10:19:27;;;;;;;25.85;12.57;;;0.90;99.90;;;;;;4973707;28;20026;-85
2023/03/10 10:22:19;;;;;;;21.67;12.05;;;1.40;99.90;;;;;;4958701;28;20133;-83
2023/03/10 10:25:07;;;;;;;22.65;12.63;;;0.90;99.90;;;;;;4974455;28;20045;-84
2023/03/10 10:27:33;;;;;;;22.13;12.65;;;0.90;99.90;;;;;;4974410;28;20435;-84
2023/03/10 10:30:26;;;;;;;22.70;12.77;;;0.90;99.90;;;;;;4959402;28;20046;-85
2023/03/10 10:33:00;;;;;;;26.00;12.98;;;0.90;99.90;;;;;;4973882;28;20510;-83
2023/03/10 10:35:29;;;;;;;23.77;13.15;;;1.00;99.90;;;;;;4957969;28;20132;-86
2023/03/10 10:38:08;;;;;;;23.08;12.88;;;1.00;99.90;;;;;;4975548;28;20038;-85
2023/03/10 10:40:45;;;;;;;25.05;13.50;;;1.00;99.90;;;;;;4954698;28;20038;-82
2023/03/10 10:43:18;;;;;;;25.48;13.85;;;1.10;99.90;;;;;;4972161;28;20483;-81
2023/03/10 10:46:02;;;;;;;22.65;12.52;;;1.10;99.90;;;;;;4956906;28;20654;-79
2023/03/10 10:48:41;;;;;;;22.90;12.95;;;1.10;99.90;;;;;;4956973;28;20046;-84
2023/03/10 10:51:23;;;;;;;23.88;12.60;;;1.10;99.90;;;;;;4989666;28;20042;-83
2023/03/10 10:53:49;;;;;;;24.10;12.77;;;1.00;99.90;;;;;;4968880;28;20876;-82
2023/03/10 10:56:19;;;;;;;23.80;12.77;;;1.00;99.90;;;;;;4957810;28;20062;-85
2023/03/10 10:59:06;;;;;;;25.17;13.50;;;1.00;99.90;;;;;;4958510;28;20504;-84
2023/03/10 11:01:51;;;;;;;24.33;14.15;;;1.00;99.90;;;;;;4958681;28;20109;-93
2023/03/10 11:04:17;;;;;;;25.67;13.68;;;1.50;99.90;;;;;;4975139;28;20038;-87
2023/03/10 11:06:43;;;;;;;25.67;13.48;;;0.90;99.90;;;;;;4974028;28;20046;-87
2023/03/10 11:09:18;;;;;;;23.25;12.80;;;0.90;99.90;;;;;;4941657;28;20495;-92
2023/03/10 11:12:03;;;;;;;28.75;15.18;;;1.30;99.90;;;;;;4978843;28;20042;-89
2023/03/10 11:14:41;;;;;;;32.03;14.23;;;0.90;99.90;;;;;;4977982;28;20171;-92
2023/03/10 11:17:16;;;;;;;24.55;13.25;;;0.90;99.90;;;;;;4991457;28;20054;-86
2023/03/10 11:20:19;;;;;;;27.90;14.68;;;0.90;99.90;;;;;;4989555;28;20034;-86
2023/03/10 11:23:24;;;;;;;25.85;13.57;;;0.90;99.90;;;;;;4975720;28;20088;-86
2023/03/10 11:26:05;;;;;;;28.27;14.07;;;0.90;99.90;;;;;;4972844;28;20049;-87
2023/03/10 11:28:47;;;;;;;26.17;13.93;;;0.90;99.90;;;;;;5004241;28;20561;-85
2023/03/10 11:31:25;;;;;;;26.55;14.02;;;0.90;99.90;;;;;;5004803;28;20046;-85
2023/03/10 11:34:29;;;;;;;30.10;14.32;;;0.90;99.90;;;;;;4976801;28;20038;-84
2023/03/10 11:37:16;;;;;;;24.98;13.50;;;0.90;99.90;;;;;;4989527;28;20488;-80
2023/03/10 11:39:56;;;;;;;28.02;14.15;;;0.90;99.90;;;;;;4989258;28;20519;-87
2023/03/10 11:42:54;;;;;;;25.98;14.05;;;0.90;99.90;;;;;;4974081;28;20502;-83
2023/03/10 11:45:20;;;;;;;31.25;14.48;;;0.90;99.90;;;;;;4953341;28;20054;-84
2023/03/10 11:47:49;;;;;;;28.08;13.32;;;0.90;99.90;;;;;;4991543;28;20072;-82
2023/03/10 11:50:28;;;;;;;26.48;13.93;;;0.90;99.90;;;;;;4986687;28;20042;-85
2023/03/10 11:53:02;;;;;;;25.42;12.85;;;0.90;99.90;;;;;;4989001;28;20065;-88
2023/03/10 11:55:29;;;;;;;24.92;12.95;;;1.30;99.90;;;;;;4995625;28;20085;-86
2023/03/10 11:57:58;;;;;;;25.90;12.95;;;0.90;99.90;;;;;;4972580;28;20034;-83
2023/03/10 12:00:38;;;;;;;25.75;14.05;;;0.90;99.90;;;;;;4993783;28;20041;-83
2023/03/10 12:03:37;;;;;;;24.35;13.13;;;0.90;99.90;;;;;;4990484;28;20085;-88
2023/03/10 12:06:07;;;;;;;25.48;13.68;;;0.80;99.90;;;;;;4989133;28;20133;-84
2023/03/10 12:08:35;;;;;;;28.15;14.10;;;0.80;99.90;;;;;;4986659;28;20030;-80
2023/03/10 12:11:04;;;;;;;26.42;14.10;;;0.80;99.90;;;;;;4973704;28;20085;-80
2023/03/10 12:13:50;;;;;;;26.58;13.55;;;0.80;99.90;;;;;;4976647;28;20054;-79
2023/03/10 12:16:23;;;;;;;27.60;13.95;;;0.90;99.90;;;;;;4971417;28;20395;-81
2023/03/10 12:18:49;;;;;;;28.73;14.80;;;0.90;99.90;;;;;;4972718;28;20049;-80
2023/03/10 12:21:21;;;;;;;25.00;12.65;;;1.00;99.90;;;;;;4972383;28;20042;-80
2023/03/10 12:23:52;;;;;;;26.90;14.07;;;1.00;99.90;;;;;;4990245;28;20547;-80
2023/03/10 12:26:36;;;;;;;26.92;13.43;;;1.00;99.90;;;;;;4988172;28;20054;-81
2023/03/10 12:29:20;;;;;;;25.80;13.93;;;1.20;99.90;;;;;;4990260;28;20042;-80
2023/03/10 12:31:49;;;;;;;28.10;14.15;;;1.00;99.90;;;;;;4989048;28;20066;-81
2023/03/10 12:34:31;;;;;;;24.70;14.30;;;1.00;99.90;;;;;;4987226;28;20100;-80
2023/03/10 12:37:11;;;;;;;31.93;15.07;;;1.00;99.90;;;;;;4993989;28;20563;-80
2023/03/10 12:39:39;;;;;;;26.90;14.38;;;1.00;99.90;;;;;;4988768;28;20282;-80
2023/03/10 12:42:28;;;;;;;28.23;14.07;;;1.00;99.90;;;;;;4996833;28;20088;-82
2023/03/10 12:45:23;;;;;;;27.52;14.00;;;1.00;99.90;;;;;;4994984;28;20054;-79
2023/03/10 12:48:06;;;;;;;26.58;13.80;;;1.00;99.90;;;;;;4982569;28;20112;-80
2023/03/10 12:50:45;;;;;;;26.88;14.82;;;0.90;99.90;;;;;;5002570;28;20057;-77